createdAt,value
2022-11-12T00:01:37.470Z,3.78
2022-11-12T00:04:23.199Z,3.08
2022-11-12T00:07:08.881Z,2.55
2022-11-12T00:09:54.413Z,2.63
2022-11-12T00:12:40.283Z,2.00
2022-11-12T00:15:26.431Z,2.97
2022-11-12T00:18:11.786Z,3.28
2022-11-12T00:20:57.262Z,3.30
2022-11-12T00:23:42.705Z,2.55
2022-11-12T00:26:28.330Z,2.95
2022-11-12T00:29:13.878Z,2.80
2022-11-12T00:31:59.485Z,2.03
2022-11-12T00:34:45.073Z,2.40
2022-11-12T00:37:30.704Z,3.88
2022-11-12T00:40:16.195Z,1.80
2022-11-12T00:43:01.578Z,3.38
2022-11-12T00:45:47.140Z,2.80
2022-11-12T00:48:32.609Z,2.38
2022-11-12T00:51:18.496Z,2.45
2022-11-12T00:54:03.903Z,2.92
2022-11-12T00:56:49.593Z,2.25
2022-11-12T00:59:35.037Z,3.35
2022-11-12T01:02:22.138Z,3.15
2022-11-12T01:05:07.901Z,1.77
2022-11-12T01:07:56.141Z,3.35
2022-11-12T01:10:41.981Z,3.08
2022-11-12T01:13:27.535Z,2.67
2022-11-12T01:16:15.915Z,2.75
2022-11-12T01:19:03.330Z,2.28
2022-11-12T01:21:48.632Z,3.47
2022-11-12T01:24:34.197Z,2.42
2022-11-12T01:27:19.664Z,3.17
2022-11-12T01:30:05.603Z,2.85
2022-11-12T01:32:51.062Z,2.60
2022-11-12T01:35:36.315Z,2.65
2022-11-12T01:38:21.817Z,2.67
2022-11-12T01:41:09.047Z,1.88
2022-11-12T01:44:14.363Z,2.65
2022-11-12T01:47:02.891Z,2.45
2022-11-12T01:50:01.313Z,1.98
2022-11-12T01:52:51.459Z,2.58
2022-11-12T01:55:38.116Z,2.50
2022-11-12T01:58:26.897Z,1.77
2022-11-12T02:01:12.581Z,2.45
2022-11-12T02:03:58.522Z,3.67
2022-11-12T02:06:46.789Z,2.38
2022-11-12T02:09:33.082Z,2.22
2022-11-12T02:12:37.922Z,2.17
2022-11-12T02:15:23.588Z,2.63
2022-11-12T02:18:09.720Z,2.22
2022-11-12T02:21:03.328Z,2.00
2022-11-12T02:24:01.412Z,2.65
2022-11-12T02:26:51.393Z,2.20
2022-11-12T02:29:46.287Z,2.25
2022-11-12T02:32:32.111Z,2.17
2022-11-12T02:35:17.602Z,1.83
2022-11-12T02:38:03.697Z,2.38
2022-11-12T02:40:49.204Z,1.85
2022-11-12T02:43:34.519Z,2.42
2022-11-12T02:46:20.134Z,1.95
2022-11-12T02:49:05.651Z,1.80
2022-11-12T02:51:51.258Z,2.13
2022-11-12T02:54:36.713Z,2.33
2022-11-12T02:57:22.307Z,2.53
2022-11-12T03:00:11.048Z,2.20
2022-11-12T03:02:59.384Z,2.50
2022-11-12T03:05:46.387Z,2.45
2022-11-12T03:08:31.791Z,1.80
2022-11-12T03:11:18.126Z,2.97
2022-11-12T03:14:06.574Z,4.00
2022-11-12T03:16:52.201Z,3.05
2022-11-12T03:19:37.614Z,3.50
2022-11-12T03:22:23.172Z,3.05
2022-11-12T03:25:09.537Z,2.00
2022-11-12T03:28:03.589Z,3.63
2022-11-12T03:30:48.895Z,4.40
2022-11-12T03:33:34.545Z,3.88
2022-11-12T03:36:20.123Z,2.75
2022-11-12T03:39:05.190Z,2.63
2022-11-12T03:41:50.706Z,3.05
2022-11-12T03:44:36.164Z,2.80
2022-11-12T03:47:21.723Z,3.03
2022-11-12T03:50:07.864Z,3.42
2022-11-12T03:52:55.428Z,2.95
2022-11-12T03:55:41.061Z,2.78
2022-11-12T03:58:27.037Z,2.65
2022-11-12T04:01:12.874Z,4.15
2022-11-12T04:03:58.530Z,3.83
2022-11-12T04:07:02.162Z,5.00
2022-11-12T04:09:47.544Z,2.65
2022-11-12T04:12:51.423Z,2.95
2022-11-12T04:15:36.930Z,3.15
2022-11-12T04:18:40.961Z,2.22
2022-11-12T04:21:51.908Z,3.05
2022-11-12T04:27:46.011Z,2.88
2022-11-12T04:30:31.593Z,3.58
2022-11-12T04:33:17.069Z,3.97
2022-11-12T04:36:02.726Z,2.38
2022-11-12T04:38:48.332Z,3.42
2022-11-12T04:41:51.870Z,2.78
2022-11-12T04:44:55.876Z,3.30
2022-11-12T04:47:43.927Z,3.35
2022-11-12T04:50:29.476Z,2.58
2022-11-12T04:53:15.461Z,3.00
2022-11-12T04:56:00.957Z,2.50
2022-11-12T04:58:46.438Z,3.13
2022-11-12T05:01:31.642Z,2.40
2022-11-12T05:04:17.085Z,2.38
2022-11-12T05:07:02.709Z,4.00
2022-11-12T05:09:48.516Z,3.97
2022-11-12T05:12:33.960Z,2.47
2022-11-12T05:15:20.331Z,2.03
2022-11-12T05:18:05.942Z,2.97
2022-11-12T05:20:53.347Z,3.03
2022-11-12T05:23:38.977Z,2.50
2022-11-12T05:26:24.519Z,2.80
2022-11-12T05:29:09.988Z,2.33
2022-11-12T05:31:55.757Z,2.83
2022-11-12T05:34:41.577Z,2.75
2022-11-12T05:37:26.890Z,4.90
2022-11-12T05:40:12.963Z,3.20
2022-11-12T05:42:58.464Z,3.25
2022-11-12T05:45:44.555Z,3.25
2022-11-12T05:48:30.260Z,4.32
2022-11-12T05:51:16.123Z,3.90
2022-11-12T05:54:02.031Z,3.22
2022-11-12T05:56:48.167Z,4.57
2022-11-12T05:59:33.902Z,5.60
2022-11-12T06:02:19.137Z,2.97
2022-11-12T06:05:05.033Z,3.22
2022-11-12T06:07:50.461Z,3.97
2022-11-12T06:10:36.012Z,2.50
2022-11-12T06:13:23.627Z,3.88
2022-11-12T06:16:09.507Z,4.07
2022-11-12T06:18:55.066Z,4.05
2022-11-12T06:21:40.568Z,4.35
2022-11-12T06:24:29.514Z,4.55
2022-11-12T06:27:19.461Z,2.90
2022-11-12T06:30:06.530Z,3.67
2022-11-12T06:32:52.198Z,3.75
2022-11-12T06:35:42.619Z,2.88
2022-11-12T06:38:30.516Z,2.80
2022-11-12T06:41:16.192Z,3.03
2022-11-12T06:44:03.485Z,3.13
2022-11-12T06:46:49.031Z,2.60
2022-11-12T06:49:34.370Z,3.03
2022-11-12T06:52:19.864Z,3.13
2022-11-12T06:55:06.025Z,2.15
2022-11-12T06:57:53.682Z,2.47
2022-11-12T07:00:39.030Z,2.58
2022-11-12T07:03:24.665Z,2.38
2022-11-12T07:06:12.870Z,2.75
2022-11-12T07:08:58.355Z,2.10
2022-11-12T07:11:43.949Z,2.35
2022-11-12T07:14:29.408Z,2.60
2022-11-12T07:17:14.879Z,3.20
2022-11-12T07:20:03.924Z,2.35
2022-11-12T07:22:49.932Z,2.90
2022-11-12T07:25:35.301Z,2.60
2022-11-12T07:28:21.325Z,3.65
2022-11-12T07:31:09.742Z,2.70
2022-11-12T07:33:55.219Z,1.63
2022-11-12T07:36:40.738Z,2.00
2022-11-12T07:39:26.212Z,2.13
2022-11-12T07:42:11.984Z,2.00
2022-11-12T07:44:57.441Z,1.90
2022-11-12T07:47:42.898Z,2.33
2022-11-12T07:50:28.413Z,2.55
2022-11-12T07:53:13.854Z,2.08
2022-11-12T07:56:01.700Z,1.77
2022-11-12T07:58:48.360Z,2.28
2022-11-12T08:01:39.253Z,1.90
2022-11-12T08:04:25.327Z,1.88
2022-11-12T08:07:10.900Z,2.65
2022-11-12T08:09:56.347Z,1.90
2022-11-12T08:12:41.701Z,2.10
2022-11-12T08:15:27.069Z,1.63
2022-11-12T08:18:12.492Z,2.53
2022-11-12T08:21:06.762Z,1.92
2022-11-12T08:23:52.663Z,1.55
2022-11-12T08:26:38.028Z,1.65
2022-11-12T08:29:23.574Z,2.15
2022-11-12T08:32:09.261Z,1.98
2022-11-12T08:34:54.335Z,1.77
2022-11-12T08:37:39.912Z,2.00
2022-11-12T08:40:26.297Z,1.48
2022-11-12T08:43:12.029Z,2.92
2022-11-12T08:46:02.548Z,2.00
2022-11-12T08:48:48.129Z,1.27
2022-11-12T08:51:33.735Z,2.38
2022-11-12T08:54:19.207Z,1.95
2022-11-12T08:57:04.591Z,2.88
2022-11-12T08:59:50.115Z,1.65
2022-11-12T09:02:35.673Z,2.08
2022-11-12T09:05:21.533Z,1.45
2022-11-12T09:08:09.447Z,1.65
2022-11-12T09:10:57.783Z,1.83
2022-11-12T09:13:43.184Z,1.30
2022-11-12T09:16:28.609Z,1.27
2022-11-12T09:19:14.154Z,1.40
2022-11-12T09:21:59.646Z,1.48
2022-11-12T09:24:45.372Z,2.63
2022-11-12T09:27:30.802Z,1.40
2022-11-12T09:30:16.340Z,2.20
2022-11-12T09:33:01.920Z,1.55
2022-11-12T09:35:47.584Z,1.40
2022-11-12T09:38:33.658Z,2.10
2022-11-12T09:41:25.586Z,1.55
2022-11-12T09:44:15.533Z,1.48
2022-11-12T09:47:13.045Z,1.55
2022-11-12T09:50:14.562Z,1.90
2022-11-12T09:53:27.018Z,1.50
2022-11-12T09:56:13.818Z,2.50
2022-11-12T09:58:59.418Z,2.05
2022-11-12T10:02:05.892Z,2.88
2022-11-12T10:05:10.308Z,1.50
2022-11-12T10:07:55.495Z,1.95
2022-11-12T10:10:44.140Z,2.75
2022-11-12T10:13:32.424Z,2.83
2022-11-12T10:16:43.714Z,2.05
2022-11-12T10:19:47.713Z,2.05
2022-11-12T10:22:40.892Z,1.83
2022-11-12T10:25:27.182Z,2.88
2022-11-12T10:28:38.631Z,2.38
2022-11-12T10:31:24.648Z,1.50
2022-11-12T10:34:09.984Z,1.92
2022-11-12T10:37:01.435Z,3.40
2022-11-12T10:39:47.741Z,2.17
2022-11-12T10:42:33.098Z,2.45
2022-11-12T10:45:23.403Z,3.47
2022-11-12T10:48:27.870Z,2.20
2022-11-12T10:51:39.593Z,2.10
2022-11-12T10:54:29.524Z,2.67
2022-11-12T10:57:26.359Z,2.53
2022-11-12T11:00:14.765Z,2.42
2022-11-12T11:03:03.245Z,1.92
2022-11-12T11:06:04.144Z,2.78
2022-11-12T11:08:52.013Z,2.83
2022-11-12T11:11:37.917Z,2.38
2022-11-12T11:14:23.219Z,2.35
2022-11-12T11:17:18.172Z,2.20
2022-11-12T11:20:10.449Z,1.63
2022-11-12T11:23:21.973Z,2.22
2022-11-12T11:26:17.495Z,2.20
2022-11-12T11:29:38.207Z,2.83
2022-11-12T11:32:52.767Z,2.05
2022-11-12T11:36:03.956Z,2.80
2022-11-12T11:38:54.776Z,2.67
2022-11-12T11:42:18.861Z,1.77
2022-11-12T11:45:27.070Z,3.53
2022-11-12T11:48:21.613Z,3.15
2022-11-12T11:51:38.038Z,1.80
2022-11-12T11:55:02.666Z,2.55
2022-11-12T11:58:06.085Z,2.25
2022-11-12T12:01:07.811Z,2.05
2022-11-12T12:04:20.851Z,3.03
2022-11-12T12:07:35.400Z,2.25
2022-11-12T12:11:12.017Z,2.25
2022-11-12T12:14:25.017Z,2.70
2022-11-12T12:17:32.238Z,2.80
2022-11-12T12:20:34.276Z,3.00
2022-11-12T12:23:26.896Z,3.60
2022-11-12T12:26:46.899Z,2.42
2022-11-12T12:29:44.147Z,3.10
2022-11-12T12:32:43.517Z,2.92
2022-11-12T12:35:33.280Z,2.20
2022-11-12T12:38:37.546Z,3.05
2022-11-12T12:41:32.833Z,3.33
2022-11-12T12:44:18.656Z,14.15
2022-11-12T12:47:04.886Z,8.68
2022-11-12T12:49:51.758Z,4.55
2022-11-12T12:53:19.256Z,7.72
2022-11-12T12:56:33.078Z,9.82
2022-11-12T12:59:23.746Z,4.88
2022-11-12T13:05:05.436Z,6.15
2022-11-12T13:07:51.723Z,4.55
2022-11-12T13:10:41.283Z,3.40
2022-11-12T13:13:32.948Z,3.53
2022-11-12T13:16:49.472Z,3.20
2022-11-12T13:19:46.277Z,4.40
2022-11-12T13:22:51.463Z,4.32
2022-11-12T13:25:37.971Z,3.72
2022-11-12T13:28:23.438Z,3.97
2022-11-12T13:31:29.472Z,4.57
2022-11-12T13:34:33.970Z,3.55
2022-11-12T13:37:23.116Z,3.10
2022-11-12T13:40:13.319Z,2.92
2022-11-12T13:43:10.387Z,3.38
2022-11-12T13:46:12.220Z,4.65
2022-11-12T13:48:57.473Z,3.63
2022-11-12T13:51:46.640Z,2.85
2022-11-12T13:54:37.003Z,3.15
2022-11-12T13:57:25.034Z,3.08
2022-11-12T14:00:22.260Z,4.97
2022-11-12T14:03:08.298Z,4.38
2022-11-12T14:05:54.535Z,4.03
2022-11-12T14:08:58.055Z,3.65
2022-11-12T14:12:14.070Z,5.03
2022-11-12T14:15:08.535Z,3.50
2022-11-12T14:18:15.611Z,4.60
2022-11-12T14:21:13.665Z,4.05
2022-11-12T14:24:01.394Z,2.17
2022-11-12T14:26:47.047Z,3.03
2022-11-12T14:29:35.440Z,2.90
2022-11-12T14:35:28.138Z,2.78
2022-11-12T14:38:58.070Z,3.45
2022-11-12T14:41:46.098Z,3.35
2022-11-12T14:44:36.891Z,2.97
2022-11-12T14:47:24.209Z,2.03
2022-11-12T14:50:24.465Z,3.78
2022-11-12T14:53:20.489Z,2.47
2022-11-12T14:56:13.924Z,2.47
2022-11-12T14:58:59.647Z,3.63
2022-11-12T15:05:18.278Z,3.50
2022-11-12T15:08:10.109Z,2.75
2022-11-12T15:10:55.573Z,1.98
2022-11-12T15:13:42.627Z,2.60
2022-11-12T15:16:29.642Z,2.40
2022-11-12T15:19:20.131Z,2.53
2022-11-12T15:24:50.650Z,2.42
2022-11-12T15:27:41.695Z,2.38
2022-11-12T15:30:30.707Z,2.72
2022-11-12T15:33:22.846Z,3.50
2022-11-12T15:36:20.435Z,4.47
2022-11-12T15:39:16.785Z,2.83
2022-11-12T15:42:15.530Z,2.58
2022-11-12T15:45:04.690Z,2.97
2022-11-12T15:47:50.259Z,2.85
2022-11-12T15:50:35.704Z,3.13
2022-11-12T15:53:21.146Z,3.35
2022-11-12T15:56:12.801Z,4.35
2022-11-12T15:58:58.468Z,3.53
2022-11-12T16:01:44.153Z,3.40
2022-11-12T16:04:29.649Z,2.50
2022-11-12T16:07:15.183Z,3.20
2022-11-12T16:10:00.716Z,2.75
2022-11-12T16:12:49.992Z,2.33
2022-11-12T16:15:35.319Z,2.95
2022-11-12T16:18:20.958Z,2.88
2022-11-12T16:21:06.447Z,3.95
2022-11-12T16:23:52.128Z,4.78
2022-11-12T16:26:37.860Z,3.40
2022-11-12T16:29:23.221Z,3.60
2022-11-12T16:32:13.649Z,4.50
2022-11-12T16:35:01.291Z,5.35
2022-11-12T16:37:47.775Z,4.50
2022-11-12T16:40:33.141Z,5.38
2022-11-12T16:43:18.908Z,5.30
2022-11-12T16:46:24.004Z,5.85
2022-11-12T16:49:14.209Z,4.45
2022-11-12T16:51:59.431Z,2.63
2022-11-12T16:54:45.105Z,3.08
2022-11-12T16:57:30.446Z,2.85
2022-11-12T17:00:18.238Z,3.72
2022-11-12T17:03:03.616Z,2.67
2022-11-12T17:05:52.950Z,2.65
2022-11-12T17:08:38.284Z,4.50
2022-11-12T17:11:23.853Z,4.82
2022-11-12T17:14:09.354Z,4.78
2022-11-12T17:16:54.873Z,4.05
2022-11-12T17:19:40.307Z,3.35
2022-11-12T17:22:26.626Z,3.33
2022-11-12T17:25:11.884Z,2.35
2022-11-12T17:27:57.051Z,3.35
2022-11-12T17:30:42.644Z,2.53
2022-11-12T17:33:28.566Z,3.70
2022-11-12T17:36:23.203Z,4.38
2022-11-12T17:39:11.958Z,4.57
2022-11-12T17:41:57.450Z,3.92
2022-11-12T17:44:42.979Z,4.10
2022-11-12T17:47:28.420Z,4.25
2022-11-12T17:50:13.910Z,3.38
2022-11-12T17:52:59.560Z,3.85
2022-11-12T17:55:45.016Z,6.10
2022-11-12T17:58:30.898Z,4.38
2022-11-12T18:01:22.713Z,5.75
2022-11-12T18:04:10.516Z,5.65
2022-11-12T18:06:56.214Z,4.88
2022-11-12T18:09:41.898Z,5.28
2022-11-12T18:12:27.319Z,6.47
2022-11-12T18:15:13.465Z,6.18
2022-11-12T18:17:58.664Z,9.23
2022-11-12T18:20:44.215Z,6.22
2022-11-12T18:23:29.834Z,5.32
2022-11-12T18:26:18.375Z,4.70
2022-11-12T18:29:03.696Z,4.05
2022-11-12T18:31:49.174Z,2.60
2022-11-12T18:34:34.846Z,3.08
2022-11-12T18:37:20.389Z,3.28
2022-11-12T18:40:06.397Z,2.67
2022-11-12T18:42:51.912Z,3.95
2022-11-12T18:45:37.049Z,2.33
2022-11-12T18:48:22.662Z,4.18
2022-11-12T18:51:10.317Z,3.17
2022-11-12T18:53:55.406Z,4.47
2022-11-12T18:56:42.605Z,2.95
2022-11-12T18:59:30.850Z,3.78
2022-11-12T19:02:16.480Z,3.08
2022-11-12T19:05:02.063Z,2.17
2022-11-12T19:07:47.665Z,2.40
2022-11-12T19:10:33.132Z,4.03
2022-11-12T19:13:18.650Z,2.28
2022-11-12T19:16:12.689Z,2.83
2022-11-12T19:18:57.915Z,2.67
2022-11-12T19:21:43.031Z,3.58
2022-11-12T19:24:28.606Z,2.50
2022-11-12T19:27:14.042Z,3.35
2022-11-12T19:30:02.882Z,3.95
2022-11-12T19:32:49.054Z,2.40
2022-11-12T19:35:34.247Z,2.72
2022-11-12T19:38:19.858Z,2.80
2022-11-12T19:41:07.062Z,2.58
2022-11-12T19:43:52.525Z,3.53
2022-11-12T19:46:38.170Z,2.72
2022-11-12T19:49:23.503Z,3.13
2022-11-12T19:52:09.074Z,4.78
2022-11-12T19:54:54.733Z,2.85
2022-11-12T19:57:43.360Z,3.25
2022-11-12T20:00:28.689Z,4.55
2022-11-12T20:03:14.059Z,2.58
2022-11-12T20:06:11.248Z,3.40
2022-11-12T20:09:00.199Z,3.85
2022-11-12T20:11:45.583Z,3.60
2022-11-12T20:14:31.091Z,2.75
2022-11-12T20:17:16.598Z,2.97
2022-11-12T20:20:02.034Z,4.25
2022-11-12T20:22:47.556Z,3.95
2022-11-12T20:25:32.837Z,4.18
2022-11-12T20:28:18.471Z,2.50
2022-11-12T20:31:22.942Z,3.28
2022-11-12T20:34:08.613Z,3.65
2022-11-12T20:36:55.207Z,3.05
2022-11-12T20:39:40.576Z,4.05
2022-11-12T20:42:26.056Z,4.45
2022-11-12T20:45:12.672Z,4.63
2022-11-12T20:47:58.056Z,2.65
2022-11-12T20:51:02.300Z,3.75
2022-11-12T20:53:49.147Z,4.38
2022-11-12T20:56:34.259Z,3.55
2022-11-12T20:59:19.730Z,3.13
2022-11-12T21:02:05.287Z,3.38
2022-11-12T21:04:54.002Z,3.10
2022-11-12T21:07:39.572Z,3.22
2022-11-12T21:10:25.140Z,3.25
2022-11-12T21:13:10.643Z,4.88
2022-11-12T21:15:56.541Z,3.63
2022-11-12T21:18:42.734Z,3.35
2022-11-12T21:21:31.685Z,4.30
2022-11-12T21:24:17.623Z,3.83
2022-11-12T21:27:03.044Z,3.08
2022-11-12T21:29:48.337Z,3.80
2022-11-12T21:32:33.846Z,4.13
2022-11-12T21:35:19.280Z,3.33
2022-11-12T21:38:04.712Z,3.60
2022-11-12T21:40:50.144Z,4.03
2022-11-12T21:43:37.407Z,3.78
2022-11-12T21:46:25.482Z,2.50
2022-11-12T21:49:10.724Z,5.47
2022-11-12T21:51:56.094Z,3.45
2022-11-12T21:54:41.675Z,4.68
2022-11-12T21:57:27.236Z,3.72
2022-11-12T22:00:40.438Z,4.85
2022-11-12T22:03:19.104Z,4.45
2022-11-12T22:06:05.147Z,4.25
2022-11-12T22:08:54.813Z,3.28
2022-11-12T22:11:40.173Z,4.90
2022-11-12T22:14:25.667Z,4.00
2022-11-12T22:17:11.154Z,5.32
2022-11-12T22:19:56.815Z,3.25
2022-11-12T22:22:42.285Z,4.22
2022-11-12T22:25:27.931Z,4.10
2022-11-12T22:28:13.426Z,4.38
2022-11-12T22:31:06.638Z,3.83
2022-11-12T22:33:52.228Z,4.50
2022-11-12T22:36:37.744Z,4.35
2022-11-12T22:39:23.163Z,4.47
2022-11-12T22:42:08.598Z,4.40
2022-11-12T22:44:54.142Z,3.72
2022-11-12T22:47:39.718Z,5.15
2022-11-12T22:50:25.216Z,3.88
2022-11-12T22:53:10.714Z,4.82
2022-11-12T22:56:01.051Z,3.53
2022-11-12T22:58:47.237Z,5.75
2022-11-12T23:01:36.312Z,4.93
2022-11-12T23:04:21.695Z,6.10
2022-11-12T23:07:07.297Z,5.63
2022-11-12T23:09:52.608Z,4.22
2022-11-12T23:12:38.160Z,5.22
2022-11-12T23:15:23.616Z,4.65
2022-11-12T23:18:09.063Z,4.22
2022-11-12T23:20:54.578Z,4.50
2022-11-12T23:23:40.424Z,3.78
2022-11-12T23:26:28.762Z,4.43
2022-11-12T23:29:14.183Z,4.40
2022-11-12T23:31:59.457Z,6.00
2022-11-12T23:34:45.295Z,4.32
2022-11-12T23:37:30.799Z,3.88
2022-11-12T23:40:16.260Z,3.63
2022-11-12T23:43:01.838Z,4.68
2022-11-12T23:45:50.788Z,3.97
2022-11-12T23:48:36.222Z,4.35
2022-11-12T23:51:22.416Z,3.60
2022-11-12T23:54:09.465Z,4.53
2022-11-12T23:56:54.835Z,4.63
2022-11-12T23:59:40.219Z,4.43
